Time;durP1;ratioP1;P1;durP2;ratioP2;P2;SDS_P1;SDS_P2;PMS_P1;PMS_P2;Temp;Humidity;BMP_temperature;BMP_pressure;BME280_temperature;BME280_humidity;BME280_pressure;Samples;Min_cycle;Max_cycle;Signal;HPM_P1;HPM_P2
2023/07/24 00:00:28;;;;;;;14.63;8.00;;;;;;;16.05;100.00;100306.56;5038092;28;20218;-67
2023/07/24 00:02:55;;;;;;;13.60;7.72;;;;;;;16.03;100.00;100300.44;5040673;28;20112;-67
2023/07/24 00:05:24;;;;;;;12.40;7.28;;;;;;;16.01;100.00;100302.41;5039901;28;20504;-67
2023/07/24 00:07:49;;;;;;;10.73;6.53;;;;;;;15.99;100.00;100299.00;5041122;28;20170;-67
2023/07/24 00:10:15;;;;;;;12.55;6.05;;;;;;;15.99;100.00;100298.16;5032770;28;20544;-68
2023/07/24 00:12:40;;;;;;;9.27;6.47;;;;;;;15.94;100.00;100299.38;5032409;28;20039;-67
2023/07/24 00:15:06;;;;;;;10.40;6.32;;;;;;;15.93;100.00;100297.69;5038617;28;20124;-66
2023/07/24 00:17:31;;;;;;;10.88;6.40;;;;;;;15.90;100.00;100289.00;5034499;28;20515;-67
2023/07/24 00:19:57;;;;;;;11.35;6.78;;;;;;;15.91;100.00;100279.97;5035300;28;20052;-66
2023/07/24 00:22:22;;;;;;;8.43;5.95;;;;;;;15.91;100.00;100283.50;5039048;28;20488;-68
2023/07/24 00:24:47;;;;;;;11.18;6.85;;;;;;;15.92;100.00;100279.00;5038551;28;20029;-67
2023/07/24 00:27:13;;;;;;;13.18;6.90;;;;;;;15.90;100.00;100276.44;5031594;28;20068;-67
2023/07/24 00:29:39;;;;;;;12.23;7.15;;;;;;;15.96;100.00;100276.91;5023323;28;20041;-67
2023/07/24 00:32:05;;;;;;;12.60;7.35;;;;;;;15.96;100.00;100269.72;5033941;28;20428;-67
2023/07/24 00:34:33;;;;;;;13.50;7.85;;;;;;;15.99;100.00;100268.63;5031477;28;20078;-67
2023/07/24 00:36:58;;;;;;;12.25;7.68;;;;;;;15.96;100.00;100255.44;5043720;28;20059;-68
2023/07/24 00:39:24;;;;;;;11.80;7.43;;;;;;;15.92;100.00;100255.69;5029823;28;20728;-67
2023/07/24 00:41:49;;;;;;;11.45;7.45;;;;;;;15.89;100.00;100261.34;5033127;28;20045;-68
2023/07/24 00:44:14;;;;;;;11.13;7.35;;;;;;;15.89;100.00;100261.34;5023441;28;20684;-68
2023/07/24 00:46:40;;;;;;;9.65;7.60;;;;;;;15.90;100.00;100254.97;5022949;28;20092;-67
2023/07/24 00:49:06;;;;;;;14.15;8.50;;;;;;;15.95;100.00;100254.59;5039405;28;20035;-67
2023/07/24 00:51:34;;;;;;;18.38;8.93;;;;;;;15.99;100.00;100250.69;5039120;28;20032;-68
2023/07/24 00:54:02;;;;;;;15.90;8.23;;;;;;;15.98;100.00;100253.50;5037924;28;20447;-68
2023/07/24 00:56:29;;;;;;;16.23;8.82;;;;;;;16.01;100.00;100254.09;5036416;28;20043;-68
2023/07/24 00:58:58;;;;;;;21.05;9.85;;;;;;;16.02;100.00;100255.81;5033411;28;20039;-67
2023/07/24 01:01:24;;;;;;;14.32;9.32;;;;;;;16.03;100.00;100259.34;5032756;28;20502;-67
2023/07/24 01:03:51;;;;;;;16.88;9.43;;;;;;;16.03;100.00;100251.28;5030757;28;20036;-67
2023/07/24 01:06:16;;;;;;;14.25;8.55;;;;;;;16.01;100.00;100248.72;5034352;28;20037;-68
2023/07/24 01:08:42;;;;;;;15.77;8.68;;;;;;;16.01;100.00;100237.13;5028098;28;20098;-65
2023/07/24 01:11:17;;;;;;;18.67;8.80;;;;;;;16.02;100.00;100245.06;5031154;28;20310;-65
2023/07/24 01:13:55;;;;;;;19.42;9.18;;;;;;;16.05;100.00;100241.25;5025496;28;20029;-64
2023/07/24 01:16:22;;;;;;;17.80;9.60;;;;;;;16.09;100.00;100234.66;5031474;28;20028;-66
2023/07/24 01:18:51;;;;;;;17.50;9.60;;;;;;;16.09;100.00;100226.59;5036399;28;20418;-65
2023/07/24 01:21:20;;;;;;;20.33;10.57;;;;;;;16.14;100.00;100219.88;5028836;28;20041;-65
2023/07/24 01:24:27;;;;;;;18.40;9.73;;;;;;;16.13;100.00;100214.63;5031682;28;21306;-65
2023/07/24 01:26:53;;;;;;;17.63;10.07;;;;;;;16.11;100.00;100216.59;4958579;28;20152;-66
2023/07/24 01:29:18;;;;;;;20.98;10.68;;;;;;;16.07;100.00;100207.09;4946681;28;20151;-66
2023/07/24 01:31:44;;;;;;;22.55;10.75;;;;;;;16.11;100.00;100216.59;4947107;28;20133;-66
2023/07/24 01:34:09;;;;;;;22.55;10.32;;;;;;;16.13;100.00;100203.88;4951463;28;20046;-67
2023/07/24 01:36:35;;;;;;;21.23;10.93;;;;;;;16.13;100.00;100199.34;4941825;28;20031;-65
2023/07/24 01:39:04;;;;;;;19.23;11.10;;;;;;;16.15;100.00;100197.41;4949227;28;20663;-65
2023/07/24 01:41:30;;;;;;;20.90;10.70;;;;;;;16.17;100.00;100191.91;4952446;28;20109;-66
2023/07/24 01:43:59;;;;;;;20.55;11.00;;;;;;;16.12;100.00;100186.06;4935807;28;20110;-65
2023/07/24 01:46:24;;;;;;;26.02;12.65;;;;;;;16.19;100.00;100180.06;4940369;28;20059;-66
2023/07/24 01:48:50;;;;;;;22.05;12.13;;;;;;;16.16;100.00;100177.63;4955609;28;20250;-66
2023/07/24 01:51:15;;;;;;;21.65;12.43;;;;;;;16.17;100.00;100187.38;4951824;28;20070;-65
2023/07/24 01:53:41;;;;;;;23.90;12.55;;;;;;;16.17;100.00;100195.44;4951274;28;20030;-67
2023/07/24 01:56:07;;;;;;;21.52;11.25;;;;;;;16.15;100.00;100192.03;4950137;28;20074;-65
2023/07/24 01:58:32;;;;;;;23.23;11.35;;;;;;;16.18;100.00;100185.56;4957275;28;20394;-67
2023/07/24 02:00:57;;;;;;;26.73;12.40;;;;;;;16.23;100.00;100179.81;4960533;28;20133;-67
2023/07/24 02:03:23;;;;;;;22.23;12.32;;;;;;;16.24;100.00;100181.50;4993661;28;20102;-66
2023/07/24 02:05:51;;;;;;;24.00;12.75;;;;;;;16.20;100.00;100172.84;5044034;28;20511;-67
2023/07/24 02:08:17;;;;;;;22.55;11.65;;;;;;;16.25;100.00;100170.63;5032001;28;20040;-66
2023/07/24 02:10:42;;;;;;;19.77;11.38;;;;;;;16.26;100.00;100155.34;5039079;28;20036;-66
2023/07/24 02:13:08;;;;;;;26.73;12.50;;;;;;;16.26;100.00;100152.69;5040627;28;20033;-64
2023/07/24 02:15:33;;;;;;;23.10;12.02;;;;;;;16.19;100.00;100152.38;5033339;28;20554;-65
2023/07/24 02:17:58;;;;;;;21.50;11.73;;;;;;;16.14;100.00;100142.03;5025558;28;20405;-66
2023/07/24 02:20:24;;;;;;;21.85;11.90;;;;;;;16.12;100.00;100148.50;5030325;28;20026;-66
2023/07/24 02:22:49;;;;;;;20.45;11.52;;;;;;;16.07;100.00;100140.84;5039233;28;20475;-66
2023/07/24 02:25:15;;;;;;;24.50;12.27;;;;;;;16.08;100.00;100158.63;5038747;28;20025;-64
2023/07/24 02:27:40;;;;;;;26.95;13.75;;;;;;;16.07;100.00;100151.56;5038964;28;20492;-66
2023/07/24 02:30:06;;;;;;;23.23;13.30;;;;;;;16.07;100.00;100156.94;5042169;28;20495;-69
2023/07/24 02:32:32;;;;;;;36.83;14.55;;;;;;;16.01;100.00;100141.38;5040179;28;20064;-68
2023/07/24 02:34:57;;;;;;;28.60;14.02;;;;;;;16.10;100.00;100137.03;5038105;28;20025;-67
2023/07/24 02:37:23;;;;;;;25.77;13.75;;;;;;;16.03;100.00;100139.38;5028921;28;20513;-67
2023/07/24 02:39:48;;;;;;;22.75;12.60;;;;;;;16.00;100.00;100138.78;5037210;28;20041;-65
2023/07/24 02:42:14;;;;;;;19.35;11.60;;;;;;;16.00;100.00;100134.28;5040346;28;20079;-66
2023/07/24 02:44:39;;;;;;;17.55;11.02;;;;;;;15.98;100.00;100138.09;5039471;28;20480;-66
2023/07/24 02:47:05;;;;;;;30.73;12.63;;;;;;;15.97;100.00;100142.59;5040242;28;20140;-65
2023/07/24 02:49:30;;;;;;;19.52;11.65;;;;;;;15.95;100.00;100144.56;5040569;28;20055;-66
2023/07/24 02:51:56;;;;;;;16.13;9.90;;;;;;;15.91;100.00;100148.47;5041200;28;20454;-66
2023/07/24 02:54:21;;;;;;;14.98;9.25;;;;;;;15.91;100.00;100162.75;5036623;28;20201;-65
2023/07/24 02:56:46;;;;;;;16.70;8.85;;;;;;;15.82;100.00;100152.78;5040407;28;20096;-65
2023/07/24 02:59:12;;;;;;;14.15;8.90;;;;;;;15.86;100.00;100156.91;5039675;28;20025;-66
2023/07/24 03:01:37;;;;;;;16.63;9.07;;;;;;;15.89;100.00;100166.56;5034709;28;20028;-66
2023/07/24 03:04:05;;;;;;;14.48;8.80;;;;;;;15.86;100.00;100153.38;5031228;28;20128;-67
2023/07/24 03:06:30;;;;;;;12.98;7.90;;;;;;;15.80;100.00;100152.06;5029765;28;20026;-67
2023/07/24 03:08:56;;;;;;;14.05;8.15;;;;;;;15.81;100.00;100156.47;5050357;28;20373;-66
2023/07/24 03:11:24;;;;;;;15.75;8.23;;;;;;;15.84;100.00;100153.53;5035466;28;20143;-65
2023/07/24 03:13:49;;;;;;;13.80;8.20;;;;;;;15.84;100.00;100149.97;5038581;28;20021;-66
2023/07/24 03:16:17;;;;;;;19.50;8.70;;;;;;;15.83;100.00;100142.91;5040740;28;20138;-66
2023/07/24 03:18:42;;;;;;;12.93;7.45;;;;;;;15.78;100.00;100131.72;5042877;28;20089;-66
2023/07/24 03:21:09;;;;;;;10.50;6.32;;;;;;;15.64;100.00;100136.41;5039150;28;20025;-66
2023/07/24 03:23:34;;;;;;;10.40;6.03;;;;;;;15.58;100.00;100134.19;5038217;28;20487;-67
2023/07/24 03:25:59;;;;;;;10.70;6.50;;;;;;;15.51;100.00;100135.69;5038712;28;20033;-66
2023/07/24 03:28:25;;;;;;;9.18;6.05;;;;;;;15.52;100.00;100137.38;5036978;28;20491;-66
2023/07/24 03:30:51;;;;;;;9.23;6.10;;;;;;;15.44;100.00;100138.00;5038462;28;20020;-67
2023/07/24 03:33:16;;;;;;;9.98;6.50;;;;;;;15.49;100.00;100118.84;5034323;28;20030;-66
2023/07/24 03:35:41;;;;;;;8.55;5.88;;;;;;;15.35;100.00;100125.38;5041165;28;20036;-66
2023/07/24 03:38:07;;;;;;;9.77;6.10;;;;;;;15.42;100.00;100131.94;5030245;28;20206;-65
2023/07/24 03:40:35;;;;;;;9.48;6.22;;;;;;;15.35;100.00;100117.31;5041673;28;20111;-66
2023/07/24 03:43:00;;;;;;;10.82;6.50;;;;;;;15.37;100.00;100125.22;5034265;28;20089;-66
2023/07/24 03:45:25;;;;;;;10.75;6.72;;;;;;;15.37;100.00;100122.53;5032859;28;20033;-66
2023/07/24 03:47:51;;;;;;;10.27;6.47;;;;;;;15.31;100.00;100121.22;5040188;28;20136;-66
2023/07/24 03:50:16;;;;;;;10.00;6.30;;;;;;;15.36;100.00;100120.84;5036982;28;20112;-67
2023/07/24 03:52:42;;;;;;;10.25;5.72;;;;;;;15.35;100.00;100122.69;5040492;28;20032;-66
2023/07/24 03:55:07;;;;;;;9.70;6.80;;;;;;;15.36;100.00;100121.69;5037766;28;20028;-66
2023/07/24 03:57:36;;;;;;;9.15;6.30;;;;;;;15.34;100.00;100130.84;5038384;28;20428;-67
2023/07/24 04:00:06;;;;;;;10.25;5.93;;;;;;;15.30;100.00;100126.69;5040449;28;20076;-66
2023/07/24 04:02:31;;;;;;;9.50;6.18;;;;;;;15.30;100.00;100135.63;5041168;28;20039;-65
2023/07/24 04:04:57;;;;;;;9.35;6.30;;;;;;;15.34;100.00;100125.47;5031903;28;20377;-65
2023/07/24 04:07:22;;;;;;;8.68;6.18;;;;;;;15.31;100.00;100118.56;5038602;28;20407;-66
2023/07/24 04:09:47;;;;;;;9.80;6.10;;;;;;;15.37;100.00;100123.41;5041061;28;20035;-66
2023/07/24 04:12:13;;;;;;;10.93;6.45;;;;;;;15.31;100.00;100126.59;5037077;28;20083;-66
2023/07/24 04:14:38;;;;;;;10.60;6.95;;;;;;;15.35;100.00;100133.41;5030443;28;20094;-66
2023/07/24 04:17:06;;;;;;;12.57;7.20;;;;;;;15.34;100.00;100147.81;5034921;28;20048;-67
2023/07/24 04:19:32;;;;;;;10.07;6.45;;;;;;;15.30;100.00;100161.56;5034749;28;20026;-66
2023/07/24 04:21:57;;;;;;;12.70;7.20;;;;;;;15.28;100.00;100168.88;5032857;28;20484;-67
2023/07/24 04:24:22;;;;;;;11.70;6.70;;;;;;;15.17;100.00;100167.06;5039977;28;20029;-66
2023/07/24 04:26:48;;;;;;;14.65;6.63;;;;;;;15.17;100.00;100153.66;5038422;28;20032;-66
2023/07/24 04:29:13;;;;;;;12.65;7.00;;;;;;;15.08;100.00;100135.66;5050256;28;20029;-66
2023/07/24 04:31:39;;;;;;;10.40;6.57;;;;;;;15.05;100.00;100131.41;5034328;28;20030;-66
2023/07/24 04:34:04;;;;;;;10.00;6.70;;;;;;;15.00;100.00;100122.84;5038214;28;20072;-66
2023/07/24 04:36:29;;;;;;;12.50;6.97;;;;;;;15.01;100.00;100140.66;5035890;28;20491;-65
2023/07/24 04:38:55;;;;;;;10.32;6.53;;;;;;;15.01;100.00;100155.91;5037850;28;20029;-66
2023/07/24 04:41:20;;;;;;;13.85;7.35;;;;;;;15.00;100.00;100170.25;5029903;28;20020;-66
2023/07/24 04:43:45;;;;;;;12.32;7.55;;;;;;;15.04;100.00;100167.19;5039200;28;20511;-65
2023/07/24 04:46:11;;;;;;;11.35;7.38;;;;;;;14.98;100.00;100151.63;5028064;28;20226;-66
2023/07/24 04:48:36;;;;;;;13.93;6.90;;;;;;;14.93;100.00;100160.03;5041041;28;20518;-65
2023/07/24 04:51:02;;;;;;;11.38;6.53;;;;;;;14.87;100.00;100155.16;5039132;28;20029;-66
2023/07/24 04:53:27;;;;;;;10.63;7.32;;;;;;;14.91;100.00;100132.50;5039750;28;20128;-66
2023/07/24 04:55:53;;;;;;;10.32;7.18;;;;;;;14.85;100.00;100141.03;5036143;28;20052;-65
2023/07/24 04:58:18;;;;;;;14.63;7.43;;;;;;;14.90;100.00;100138.84;5032407;28;20029;-67
2023/07/24 05:00:43;;;;;;;9.52;6.70;;;;;;;14.83;100.00;100116.19;5035837;28;20511;-67
2023/07/24 05:03:11;;;;;;;12.02;7.03;;;;;;;14.89;100.00;100121.06;5039748;28;20029;-66
2023/07/24 05:05:37;;;;;;;10.60;7.15;;;;;;;14.85;100.00;100134.84;5038671;28;20337;-66
2023/07/24 05:08:02;;;;;;;8.73;6.50;;;;;;;14.84;100.00;100142.03;5032361;28;20097;-67
2023/07/24 05:10:28;;;;;;;9.27;7.35;;;;;;;14.85;100.00;100148.22;5034356;28;20116;-65
2023/07/24 05:12:56;;;;;;;10.02;7.35;;;;;;;14.85;100.00;100145.53;5033391;28;20527;-66
2023/07/24 05:15:22;;;;;;;9.70;7.05;;;;;;;14.77;100.00;100145.31;5036018;28;20033;-66
2023/07/24 05:17:47;;;;;;;9.52;7.13;;;;;;;14.83;100.00;100142.97;5033945;28;20518;-66
2023/07/24 05:20:12;;;;;;;11.10;7.75;;;;;;;14.83;100.00;100144.81;5035733;28;20072;-67
2023/07/24 05:22:38;;;;;;;10.88;7.68;;;;;;;14.89;100.00;100155.03;5033371;28;20025;-67
2023/07/24 05:25:04;;;;;;;11.98;8.27;;;;;;;14.82;100.00;100152.00;5040319;28;20047;-67
2023/07/24 05:27:30;;;;;;;12.40;9.05;;;;;;;14.83;100.00;100159.03;5036242;28;20025;-67
2023/07/24 05:29:55;;;;;;;11.48;8.48;;;;;;;14.89;100.00;100161.25;5039467;28;20032;-67
2023/07/24 05:32:21;;;;;;;13.00;8.70;;;;;;;14.83;100.00;100161.72;5037528;28;20029;-68
2023/07/24 05:34:46;;;;;;;12.27;8.60;;;;;;;14.92;100.00;100169.06;5040904;28;20036;-67
2023/07/24 05:37:11;;;;;;;12.13;8.68;;;;;;;14.95;100.00;100171.47;5041219;28;20033;-66
2023/07/24 05:39:37;;;;;;;23.63;16.48;;;;;;;14.95;100.00;100173.31;5036674;28;20035;-67
2023/07/24 05:42:03;;;;;;;16.25;9.93;;;;;;;14.95;100.00;100178.66;5043761;28;20032;-67
2023/07/24 05:44:28;;;;;;;14.43;10.23;;;;;;;14.87;100.00;100170.38;5035019;28;20021;-66
2023/07/24 05:46:54;;;;;;;13.77;9.70;;;;;;;14.91;100.00;100175.38;5036916;28;20253;-67
2023/07/24 05:49:19;;;;;;;14.77;10.25;;;;;;;14.98;100.00;100181.09;5033521;28;20431;-67
2023/07/24 05:51:44;;;;;;;13.05;8.95;;;;;;;15.01;100.00;100185.38;5040788;28;20610;-67
2023/07/24 05:54:09;;;;;;;12.43;9.20;;;;;;;15.02;100.00;100187.91;5041862;28;20025;-67
2023/07/24 05:56:35;;;;;;;11.30;8.77;;;;;;;14.97;100.00;100191.94;5034819;28;20083;-68
2023/07/24 05:59:00;;;;;;;11.70;8.70;;;;;;;15.00;100.00;100189.00;5043074;28;20045;-67
2023/07/24 06:01:25;;;;;;;12.27;8.88;;;;;;;14.98;100.00;100183.78;5037624;28;20089;-67
2023/07/24 06:03:51;;;;;;;12.50;8.85;;;;;;;15.13;100.00;100179.00;5034073;28;20476;-67
2023/07/24 06:06:16;;;;;;;13.27;9.30;;;;;;;15.26;100.00;100179.75;5040553;28;20280;-67
2023/07/24 06:08:42;;;;;;;12.18;8.40;;;;;;;15.32;100.00;100176.56;5041257;28;20041;-67
2023/07/24 06:11:07;;;;;;;12.88;9.25;;;;;;;15.41;100.00;100170.44;5042299;28;20036;-67
2023/07/24 06:13:32;;;;;;;11.73;8.95;;;;;;;15.39;100.00;100177.75;5038021;28;20083;-67
2023/07/24 06:15:57;;;;;;;11.57;8.82;;;;;;;15.40;100.00;100175.94;5040896;28;20272;-67
2023/07/24 06:18:23;;;;;;;13.15;9.30;;;;;;;15.68;100.00;100185.28;5040881;28;20025;-67
2023/07/24 06:20:53;;;;;;;15.15;10.02;;;;;;;15.74;100.00;100176.72;5032977;28;20263;-67
2023/07/24 06:23:18;;;;;;;12.40;8.80;;;;;;;15.76;100.00;100180.16;5037604;28;20024;-67
2023/07/24 06:25:44;;;;;;;11.80;8.15;;;;;;;15.75;100.00;100181.09;5036492;28;20033;-67
2023/07/24 06:28:09;;;;;;;12.85;8.30;;;;;;;15.81;100.00;100194.03;5037821;28;20033;-68
2023/07/24 06:30:40;;;;;;;10.32;8.15;;;;;;;15.76;100.00;100195.38;5040512;28;20033;-68
2023/07/24 06:33:06;;;;;;;10.38;7.88;;;;;;;15.90;100.00;100189.72;5035945;28;20029;-66
2023/07/24 06:35:31;;;;;;;10.52;7.75;;;;;;;15.92;100.00;100182.38;5035943;28;20036;-67
2023/07/24 06:37:57;;;;;;;8.23;6.78;;;;;;;15.80;100.00;100180.72;5039203;28;20029;-67
2023/07/24 06:40:22;;;;;;;9.90;6.95;;;;;;;15.79;100.00;100179.00;5038474;28;20059;-66
2023/07/24 06:42:47;;;;;;;9.07;7.20;;;;;;;15.99;100.00;100182.72;5026781;28;20104;-67
2023/07/24 06:45:13;;;;;;;10.05;7.20;;;;;;;16.00;100.00;100189.78;5040638;28;20032;-66
2023/07/24 06:47:38;;;;;;;10.35;7.07;;;;;;;15.93;100.00;100186.78;5036354;28;20242;-66
2023/07/24 06:50:07;;;;;;;8.98;6.93;;;;;;;15.78;100.00;100191.59;5040051;28;20044;-67
2023/07/24 06:52:33;;;;;;;8.00;6.53;;;;;;;15.77;100.00;100191.72;5034905;28;20083;-67
2023/07/24 06:54:58;;;;;;;9.00;6.78;;;;;;;15.85;100.00;100190.09;5036555;28;20032;-67
2023/07/24 06:57:24;;;;;;;10.07;7.20;;;;;;;15.97;100.00;100187.34;5038960;28;20430;-66
2023/07/24 06:59:49;;;;;;;11.15;7.72;;;;;;;15.79;100.00;100184.38;5036857;28;20545;-67
2023/07/24 07:02:15;;;;;;;8.65;7.15;;;;;;;15.75;100.00;100185.63;5040389;28;20025;-66
2023/07/24 07:04:40;;;;;;;9.90;7.07;;;;;;;15.74;100.00;100197.34;5040019;28;20044;-66
2023/07/24 07:07:06;;;;;;;9.18;6.85;;;;;;;15.68;100.00;100196.03;5040006;28;20039;-67
2023/07/24 07:09:31;;;;;;;9.00;6.70;;;;;;;15.67;100.00;100203.22;5039579;28;20102;-67
2023/07/24 07:11:56;;;;;;;8.57;7.30;;;;;;;15.59;100.00;100178.81;5036996;28;20039;-66
2023/07/24 07:14:22;;;;;;;10.75;8.05;;;;;;;15.85;100.00;100181.22;5037573;28;20498;-66
2023/07/24 07:20:09;;;;;;;9.70;7.00;;;;;;;15.60;100.00;100183.19;5052881;22;20260;-69
2023/07/24 07:22:35;;;;;;;9.48;6.82;;;;;;;15.52;100.00;100177.63;5046329;28;20037;-78
2023/07/24 07:25:00;;;;;;;12.57;8.50;;;;;;;15.75;100.00;100172.19;5036627;28;20033;-73
2023/07/24 07:27:25;;;;;;;10.48;7.63;;;;;;;15.82;100.00;100173.41;5034138;28;20021;-78
2023/07/24 07:29:51;;;;;;;9.63;7.72;;;;;;;15.90;100.00;100187.88;5020420;28;20029;-71
2023/07/24 07:32:16;;;;;;;9.20;7.07;;;;;;;15.76;100.00;100174.78;5032966;28;20597;-75
2023/07/24 07:34:41;;;;;;;8.13;6.53;;;;;;;15.75;100.00;100183.78;5042455;28;20064;-81
2023/07/24 07:37:07;;;;;;;9.20;7.13;;;;;;;15.96;100.00;100170.41;5034005;28;20039;-76
2023/07/24 07:39:32;;;;;;;9.85;7.60;;;;;;;16.36;100.00;100167.03;5031410;28;20029;-78
2023/07/24 07:41:58;;;;;;;11.25;8.32;;;;;;;16.55;100.00;100177.88;5036214;28;20253;-88
2023/07/24 07:44:23;;;;;;;8.52;6.63;;;;;;;16.44;100.00;100176.13;5040575;28;20030;-79
2023/07/24 07:46:49;;;;;;;10.73;7.53;;;;;;;16.69;100.00;100164.13;5032554;28;20131;-83
2023/07/24 07:49:15;;;;;;;10.00;7.53;;;;;;;16.73;100.00;100166.56;5039619;28;20063;-77
2023/07/24 07:51:40;;;;;;;11.15;7.22;;;;;;;16.69;100.00;100163.28;5039479;28;20029;-81
2023/07/24 07:54:05;;;;;;;9.27;7.47;;;;;;;16.67;100.00;100163.38;5036003;28;20025;-74
2023/07/24 07:56:31;;;;;;;8.10;6.85;;;;;;;16.53;100.00;100169.13;5035916;28;20029;-73
2023/07/24 07:58:56;;;;;;;8.93;7.30;;;;;;;16.85;100.00;100174.41;5037322;28;20034;-74
2023/07/24 08:01:21;;;;;;;11.30;7.82;;;;;;;17.33;100.00;100179.09;5038434;28;20028;-80
2023/07/24 08:03:47;;;;;;;11.73;9.15;;;;;;;18.39;100.00;100169.41;5032002;28;20041;-74
2023/07/24 08:06:12;;;;;;;12.05;7.85;;;;;;;18.30;100.00;100165.72;5038221;28;20280;-79
2023/07/24 08:08:38;;;;;;;9.25;7.65;;;;;;;18.13;100.00;100174.53;5018914;28;20021;-79
2023/07/24 08:11:07;;;;;;;8.55;6.85;;;;;;;17.72;100.00;100178.31;5038995;28;20120;-77
2023/07/24 08:13:34;;;;;;;7.13;6.00;;;;;;;17.56;100.00;100170.81;5032375;28;20025;-82
2023/07/24 08:16:01;;;;;;;6.82;6.03;;;;;;;17.58;100.00;100176.88;5030130;28;20032;-72
2023/07/24 08:18:35;;;;;;;8.38;6.43;;;;;;;17.64;100.00;100161.06;5038170;28;20804;-81
2023/07/24 08:21:00;;;;;;;10.45;8.30;;;;;;;18.88;100.00;100162.91;5023330;28;20109;-82
2023/07/24 08:23:25;;;;;;;8.07;6.88;;;;;;;19.19;100.00;100165.34;5009460;28;20090;-81
2023/07/24 08:25:55;;;;;;;9.68;6.20;;;;;;;18.71;100.00;100161.00;5018343;28;20028;-82
2023/07/24 08:28:21;;;;;;;6.05;5.35;;;;;;;18.27;100.00;100163.34;5016844;28;20040;-81
2023/07/24 08:30:56;;;;;;;7.85;6.07;;;;;;;17.72;100.00;100167.56;5011781;28;20096;-81
2023/07/24 08:33:21;;;;;;;9.07;6.47;;;;;;;17.52;100.00;100170.25;5010300;28;20034;-81
2023/07/24 08:35:47;;;;;;;7.63;6.30;;;;;;;17.34;100.00;100163.81;5010463;28;20030;-82
2023/07/24 08:38:12;;;;;;;8.98;6.97;;;;;;;17.34;100.00;100164.66;5018373;28;20060;-81
2023/07/24 08:40:39;;;;;;;9.90;8.15;;;;;;;17.90;100.00;100172.16;5018232;28;20037;-82
2023/07/24 08:43:05;;;;;;;10.07;8.57;;;;;;;18.36;100.00;100175.94;5016776;28;20083;-82
2023/07/24 08:45:31;;;;;;;8.55;6.90;;;;;;;18.58;100.00;100173.91;5016093;28;20029;-82
2023/07/24 08:47:58;;;;;;;8.60;6.97;;;;;;;18.21;100.00;100173.81;5016463;28;20095;-82
2023/07/24 08:50:26;;;;;;;7.93;7.10;;;;;;;17.95;100.00;100165.50;5015845;28;20038;-82
2023/07/24 08:52:51;;;;;;;7.57;6.88;;;;;;;17.94;100.00;100169.19;5028172;28;20029;-83
2023/07/24 08:55:19;;;;;;;9.57;6.75;;;;;;;17.89;100.00;100175.84;5021235;28;20025;-80
2023/07/24 08:57:44;;;;;;;7.53;6.80;;;;;;;17.62;100.00;100160.31;5015285;28;20095;-82
2023/07/24 09:00:10;;;;;;;8.10;6.95;;;;;;;17.56;100.00;100147.44;5016768;28;20577;-82
2023/07/24 09:02:36;;;;;;;8.15;7.22;;;;;;;17.89;100.00;100156.13;5017002;28;20041;-82
2023/07/24 09:05:03;;;;;;;9.45;8.30;;;;;;;18.47;100.00;100150.66;5017144;28;20034;-81
2023/07/24 09:07:30;;;;;;;8.85;7.00;;;;;;;18.50;100.00;100147.69;5018913;28;20504;-81
2023/07/24 09:09:55;;;;;;;10.07;7.53;;;;;;;18.96;100.00;100145.16;5016620;28;20041;-82
2023/07/24 09:12:22;;;;;;;8.15;7.35;;;;;;;19.51;100.00;100143.25;5019040;28;20033;-82
2023/07/24 09:14:48;;;;;;;8.30;7.32;;;;;;;20.25;100.00;100141.25;5017365;28;20083;-82
2023/07/24 09:17:13;;;;;;;8.18;7.38;;;;;;;21.37;100.00;100130.41;5017273;28;20628;-83
2023/07/24 09:19:39;;;;;;;8.65;7.50;;;;;;;22.52;100.00;100131.31;5016446;28;20053;-82
2023/07/24 09:22:15;;;;;;;8.90;7.57;;;;;;;24.01;100.00;100136.75;5017097;28;20084;-81
2023/07/24 09:24:50;;;;;;;6.88;6.20;;;;;;;24.30;100.00;100125.13;5015886;28;20029;-82
2023/07/24 09:27:16;;;;;;;6.20;5.60;;;;;;;24.11;100.00;100118.31;5016533;28;20035;-81
2023/07/24 09:29:41;;;;;;;6.50;5.32;;;;;;;24.58;100.00;100109.06;5004568;28;20057;-81
2023/07/24 09:32:08;;;;;;;5.35;4.85;;;;;;;23.78;98.21;100125.88;4999421;28;20029;-81
2023/07/24 09:34:33;;;;;;;5.15;4.65;;;;;;;22.60;100.00;100096.03;5002941;28;20034;-81
2023/07/24 09:36:59;;;;;;;5.38;4.20;;;;;;;21.66;100.00;100108.31;5001017;28;20540;-82
2023/07/24 09:39:26;;;;;;;5.05;3.95;;;;;;;20.81;100.00;100094.81;5034940;28;20034;-82
2023/07/24 09:41:52;;;;;;;4.75;4.20;;;;;;;20.29;100.00;100100.25;5003168;28;20526;-82
2023/07/24 09:44:17;;;;;;;7.18;4.82;;;;;;;19.95;100.00;100089.38;5003753;28;20125;-83
2023/07/24 09:46:43;;;;;;;6.47;4.90;;;;;;;19.66;100.00;100081.53;5004071;28;20113;-82
2023/07/24 09:49:09;;;;;;;5.38;4.88;;;;;;;19.41;100.00;100081.25;5003554;28;20034;-83
2023/07/24 09:51:35;;;;;;;5.65;4.75;;;;;;;19.16;100.00;100080.16;5003108;28;20750;-82
2023/07/24 09:54:21;;;;;;;5.15;4.65;;;;;;;19.06;100.00;100076.69;5020406;28;20117;-82
2023/07/24 09:56:48;;;;;;;5.30;4.80;;;;;;;18.80;100.00;100075.69;5021091;28;20045;-81
2023/07/24 09:59:14;;;;;;;6.50;5.50;;;;;;;18.62;100.00;100075.59;5021311;28;20046;-81
2023/07/24 10:01:40;;;;;;;5.70;5.07;;;;;;;18.55;100.00;100069.09;5025857;28;20045;-81
2023/07/24 10:04:07;;;;;;;5.57;5.07;;;;;;;18.46;100.00;100075.38;5027359;28;20034;-81
2023/07/24 10:06:33;;;;;;;6.07;5.47;;;;;;;18.36;100.00;100076.25;5009918;28;20541;-82
2023/07/24 10:08:59;;;;;;;5.65;5.15;;;;;;;18.28;100.00;100076.13;5008907;28;20029;-82
2023/07/24 10:11:26;;;;;;;5.75;5.25;;;;;;;18.13;100.00;100096.44;5029903;28;20040;-82
2023/07/24 10:13:53;;;;;;;5.57;4.95;;;;;;;18.03;100.00;100101.00;5007542;28;20049;-82
2023/07/24 10:16:18;;;;;;;7.32;5.18;;;;;;;17.89;100.00;100097.75;5004125;28;20087;-82
2023/07/24 10:18:46;;;;;;;5.95;5.43;;;;;;;17.86;100.00;100100.72;5012267;28;20830;-82
2023/07/24 10:21:13;;;;;;;6.78;6.18;;;;;;;17.85;100.00;100100.88;5010822;28;20045;-82
2023/07/24 10:23:43;;;;;;;6.20;5.65;;;;;;;17.79;100.00;100121.13;5008073;28;20036;-82
2023/07/24 10:26:09;;;;;;;6.22;5.60;;;;;;;17.79;100.00;100120.28;5003709;28;20036;-81
2023/07/24 10:28:40;;;;;;;6.85;5.85;;;;;;;17.80;100.00;100114.75;4998556;28;20210;-82
2023/07/24 10:31:29;;;;;;;5.50;5.00;;;;;;;17.80;100.00;100111.22;5011805;28;20092;-83
2023/07/24 10:33:56;;;;;;;6.00;5.50;;;;;;;17.78;100.00;100091.69;5010614;28;20429;-83
2023/07/24 10:36:23;;;;;;;5.97;5.35;;;;;;;17.75;100.00;100103.56;5003449;28;20025;-83
2023/07/24 10:38:56;;;;;;;5.95;5.35;;;;;;;17.66;100.00;100110.63;5001362;28;20038;-83
2023/07/24 10:41:21;;;;;;;;;;;;;;;17.74;100.00;100101.88;5032933;28;20036;-83
2023/07/24 10:43:49;;;;;;;5.70;5.20;;;;;;;17.69;100.00;100125.66;5002997;28;19909;-83
2023/07/24 10:46:16;;;;;;;5.30;4.90;;;;;;;17.70;100.00;100138.09;5004147;28;20022;-83
2023/07/24 10:48:45;;;;;;;6.60;5.72;;;;;;;17.84;100.00;100140.38;5003113;28;20038;-83
2023/07/24 10:51:14;;;;;;;6.50;5.90;;;;;;;18.01;100.00;100140.66;5005694;28;20310;-83
2023/07/24 10:53:42;;;;;;;5.50;5.00;;;;;;;18.39;100.00;100140.63;5002362;28;20096;-83
2023/07/24 10:56:08;;;;;;;5.90;5.30;;;;;;;18.86;100.00;100124.47;5002558;28;20030;-83
2023/07/24 10:58:35;;;;;;;6.00;5.40;;;;;;;19.48;100.00;100122.00;5002756;28;20045;-83
2023/07/24 11:01:04;;;;;;;5.40;4.95;;;;;;;19.78;100.00;100107.28;5008641;28;20375;-81
2023/07/24 11:03:30;;;;;;;5.03;4.63;;;;;;;19.92;100.00;100107.75;5002595;28;20077;-82
2023/07/24 11:05:57;;;;;;;5.40;4.90;;;;;;;19.79;100.00;100118.94;5003092;28;20479;-82
2023/07/24 11:08:22;;;;;;;5.30;4.78;;;;;;;19.55;100.00;100114.13;5001735;28;20037;-82
2023/07/24 11:10:53;;;;;;;4.88;4.47;;;;;;;19.55;100.00;100120.34;4993302;28;20030;-82